Terminal Aerodrome Forecast
Issued by NWS

Home | Current Version | Previous Version | Text Only | Print | Product List | Glossary On
Versions: 1 2 3 4 5 6 7 8 9 10 11 12 13 14 15 16 17 18 19 20 21 22 23 24 25 26 27 28 29 30 31 32 33 34 35 36 37 38 39
000
FTUS44 KHGX 031134
TAFUTS
TAF
KUTS 031134Z 0312/0412 00000KT P6SM BKN007
      TEMPO 0312/0314 6SM BR BKN003
     FM031500 13003KT P6SM FEW030 SCT150
     FM031800 16005KT P6SM SCT040
     FM040200 17003KT P6SM SKC
     FM041000 00000KT P6SM BKN010=

USA.gov is the U.S. government's official web portal to all federal, state and local government web resources and services.